createdAt,value
2018-05-21T00:00:15.626Z,60.50
2018-05-21T00:01:06.555Z,60.50
2018-05-21T00:02:06.379Z,60.90
2018-05-21T00:03:06.421Z,60.30
2018-05-21T00:04:06.535Z,60.60
2018-05-21T00:05:06.288Z,60.40
2018-05-21T00:06:07.115Z,60.80
2018-05-21T00:07:06.205Z,61.10
2018-05-21T00:08:06.423Z,61.20
2018-05-21T00:09:11.237Z,61.10
2018-05-21T00:10:08.655Z,61.10
2018-05-21T00:11:07.084Z,61.20
2018-05-21T00:12:05.761Z,61.20
2018-05-21T00:13:06.394Z,61.70
2018-05-21T00:14:06.392Z,61.40
2018-05-21T00:15:08.967Z,61.90
2018-05-21T00:16:06.232Z,61.90
2018-05-21T00:17:06.377Z,61.70
2018-05-21T00:18:06.558Z,62.10
2018-05-21T00:19:06.287Z,62.70
2018-05-21T00:20:08.577Z,62.50
2018-05-21T00:21:08.661Z,63.20
2018-05-21T00:22:08.830Z,63.80
2018-05-21T00:23:08.097Z,63.40
2018-05-21T00:24:05.548Z,63.40
2018-05-21T00:25:06.231Z,62.90
2018-05-21T00:26:11.060Z,63.30
2018-05-21T00:27:06.199Z,62.90
2018-05-21T00:28:06.618Z,62.90
2018-05-21T00:29:07.358Z,63.20
2018-05-21T00:30:08.496Z,63.10
2018-05-21T00:31:06.477Z,63.10
2018-05-21T00:32:08.773Z,63.30
2018-05-21T00:33:08.806Z,62.80
2018-05-21T00:34:06.715Z,56.40
2018-05-21T00:35:09.028Z,63.60
2018-05-21T00:36:08.137Z,63.20
2018-05-21T00:37:06.005Z,63.30
2018-05-21T00:38:05.651Z,63.20
2018-05-21T00:39:06.664Z,63.30
2018-05-21T00:40:06.412Z,63.20
2018-05-21T00:41:10.969Z,64.10
2018-05-21T00:42:06.435Z,63.90
2018-05-21T00:43:08.512Z,64.70
2018-05-21T00:44:06.104Z,64.80
2018-05-21T00:45:05.621Z,65.10
2018-05-21T00:46:05.978Z,65.50
2018-05-21T00:47:08.336Z,65.10
2018-05-21T00:48:08.136Z,64.80
2018-05-21T00:49:05.667Z,64.70
2018-05-21T00:50:08.822Z,65.00
2018-05-21T00:51:06.477Z,65.10
2018-05-21T00:52:06.194Z,64.60
2018-05-21T00:53:08.421Z,65.00
2018-05-21T00:54:05.981Z,64.90
2018-05-21T00:55:05.893Z,65.10
2018-05-21T00:56:08.243Z,65.20
2018-05-21T00:57:05.874Z,65.20
2018-05-21T00:58:10.793Z,65.50
2018-05-21T00:59:06.440Z,65.60
2018-05-21T01:00:06.254Z,65.70
2018-05-21T01:01:06.071Z,66.10
2018-05-21T01:02:10.911Z,66.20
2018-05-21T01:03:11.126Z,66.70
2018-05-21T01:04:06.538Z,67.40
2018-05-21T01:05:08.800Z,67.60
2018-05-21T01:06:11.414Z,67.60
2018-05-21T01:07:10.437Z,67.20
2018-05-21T01:08:05.830Z,67.60
2018-05-21T01:09:06.813Z,67.90
2018-05-21T01:10:06.685Z,68.60
2018-05-21T01:11:06.965Z,68.60
2018-05-21T01:12:05.982Z,68.20
2018-05-21T01:13:05.617Z,68.30
2018-05-21T01:14:11.462Z,68.50
2018-05-21T01:15:08.808Z,69.20
2018-05-21T01:16:05.816Z,69.20
2018-05-21T01:17:10.541Z,69.30
2018-05-21T01:18:08.235Z,69.20
2018-05-21T01:19:08.359Z,69.10
2018-05-21T01:20:08.361Z,68.90
2018-05-21T01:21:06.215Z,68.70
2018-05-21T01:22:06.188Z,68.60
2018-05-21T01:23:08.429Z,69.40
2018-05-21T01:24:06.940Z,69.40
2018-05-21T01:25:11.107Z,69.80
2018-05-21T01:26:05.692Z,69.80
2018-05-21T01:27:06.820Z,69.80
2018-05-21T01:28:08.192Z,70.10
2018-05-21T01:29:06.074Z,70.10
2018-05-21T01:30:06.389Z,69.50
2018-05-21T01:31:09.640Z,69.50
2018-05-21T01:32:06.081Z,69.50
2018-05-21T01:33:08.172Z,69.70
2018-05-21T01:34:06.571Z,69.70
2018-05-21T01:35:06.302Z,69.60
2018-05-21T01:36:05.934Z,69.40
2018-05-21T01:37:05.627Z,68.80
2018-05-21T01:38:09.093Z,69.00
2018-05-21T01:39:06.908Z,68.90
2018-05-21T01:40:05.525Z,68.70
2018-05-21T01:41:06.051Z,68.60
2018-05-21T01:42:05.583Z,68.10
2018-05-21T01:43:06.199Z,68.40
2018-05-21T01:44:13.594Z,69.00
2018-05-21T01:45:06.411Z,69.00
2018-05-21T01:46:06.179Z,69.20
2018-05-21T01:47:07.045Z,69.00
2018-05-21T01:48:05.962Z,68.70
2018-05-21T01:49:05.782Z,68.90
2018-05-21T01:50:08.572Z,69.20
2018-05-21T01:51:06.044Z,69.20
2018-05-21T01:52:05.831Z,68.80
2018-05-21T01:53:05.992Z,68.80
2018-05-21T01:54:05.882Z,68.50
2018-05-21T01:55:05.530Z,68.90
2018-05-21T01:56:08.630Z,69.90
2018-05-21T01:57:06.251Z,69.90
2018-05-21T01:58:16.030Z,69.90
2018-05-21T01:59:06.516Z,69.70
2018-05-21T02:00:09.025Z,69.00
2018-05-21T02:01:05.526Z,68.90
2018-05-21T02:02:06.543Z,68.90
2018-05-21T02:03:08.701Z,69.00
2018-05-21T02:04:08.680Z,69.20
2018-05-21T02:05:06.288Z,69.20
2018-05-21T02:06:06.376Z,69.60
2018-05-21T02:07:06.143Z,69.60
2018-05-21T02:08:08.226Z,69.60
2018-05-21T02:09:06.244Z,69.60
2018-05-21T02:10:11.124Z,70.30
2018-05-21T02:11:06.166Z,70.30
2018-05-21T02:12:06.328Z,70.10
2018-05-21T02:13:05.981Z,69.90
2018-05-21T02:14:05.692Z,69.70
2018-05-21T02:15:11.539Z,70.00
2018-05-21T02:16:08.160Z,70.10
2018-05-21T02:17:11.413Z,70.10
2018-05-21T02:18:06.024Z,70.10
2018-05-21T02:19:06.158Z,69.80
2018-05-21T02:20:05.980Z,69.80
2018-05-21T02:21:06.371Z,69.40
2018-05-21T02:22:08.441Z,69.30
2018-05-21T02:23:08.482Z,69.70
2018-05-21T02:24:05.905Z,69.70
2018-05-21T02:25:05.801Z,69.40
2018-05-21T02:26:06.404Z,69.20
2018-05-21T02:27:09.107Z,69.40
2018-05-21T02:28:08.318Z,69.60
2018-05-21T02:29:06.941Z,69.60
2018-05-21T02:30:11.512Z,69.40
2018-05-21T02:31:06.054Z,69.00
2018-05-21T02:32:05.750Z,68.60
2018-05-21T02:33:05.962Z,68.70
2018-05-21T02:34:06.966Z,68.40
2018-05-21T02:35:09.322Z,68.80
2018-05-21T02:36:06.315Z,68.80
2018-05-21T02:37:08.574Z,68.70
2018-05-21T02:38:08.536Z,68.60
2018-05-21T02:39:06.272Z,68.60
2018-05-21T02:40:05.827Z,68.50
2018-05-21T02:41:07.977Z,68.60
2018-05-21T02:42:05.558Z,68.60
2018-05-21T02:43:08.895Z,68.70
2018-05-21T02:44:07.571Z,68.70
2018-05-21T02:45:06.194Z,68.90
2018-05-21T02:46:09.028Z,68.90
2018-05-21T02:47:05.517Z,68.90
2018-05-21T02:48:08.645Z,69.20
2018-05-21T02:49:11.353Z,69.00
2018-05-21T02:50:05.681Z,68.90
2018-05-21T02:51:06.954Z,69.10
2018-05-21T02:52:08.610Z,69.20
2018-05-21T02:53:06.222Z,69.20
2018-05-21T02:54:06.374Z,69.10
2018-05-21T02:55:06.523Z,69.80
2018-05-21T02:56:06.590Z,70.00
2018-05-21T02:57:08.603Z,70.20
2018-05-21T02:58:08.680Z,70.30
2018-05-21T02:59:06.471Z,70.30
2018-05-21T03:00:05.762Z,70.70
2018-05-21T03:01:06.548Z,71.00
2018-05-21T03:02:09.084Z,71.00
2018-05-21T03:03:08.027Z,70.80
2018-05-21T03:04:05.619Z,70.80
2018-05-21T03:05:06.498Z,71.40
2018-05-21T03:06:06.176Z,71.60
2018-05-21T03:07:06.249Z,72.20
2018-05-21T03:08:05.808Z,72.70
2018-05-21T03:09:06.484Z,72.50
2018-05-21T03:10:06.998Z,72.50
2018-05-21T03:11:10.722Z,73.20
2018-05-21T03:12:13.234Z,73.40
2018-05-21T03:13:05.884Z,73.40
2018-05-21T03:14:06.123Z,73.30
2018-05-21T03:15:10.229Z,72.90
2018-05-21T03:16:05.756Z,72.90
2018-05-21T03:17:05.830Z,73.20
2018-05-21T03:18:08.118Z,73.40
2018-05-21T03:19:10.596Z,73.60
2018-05-21T03:20:06.126Z,73.70
2018-05-21T03:21:08.297Z,73.90
2018-05-21T03:22:05.965Z,74.00
2018-05-21T03:23:06.465Z,74.60
2018-05-21T03:24:06.384Z,74.70
2018-05-21T03:25:06.293Z,74.70
2018-05-21T03:26:06.002Z,74.50
2018-05-21T03:27:08.795Z,74.60
2018-05-21T03:28:08.978Z,74.40
2018-05-21T03:29:05.707Z,74.40
2018-05-21T03:30:06.150Z,74.70
2018-05-21T03:31:08.484Z,75.50
2018-05-21T03:32:06.366Z,75.40
2018-05-21T03:33:06.101Z,75.20
2018-05-21T03:34:08.452Z,75.40
2018-05-21T03:35:07.987Z,75.40
2018-05-21T03:36:08.330Z,75.40
2018-05-21T03:37:09.038Z,75.40
2018-05-21T03:38:05.631Z,75.40
2018-05-21T03:39:08.715Z,75.80
2018-05-21T03:40:08.742Z,75.80
2018-05-21T03:41:06.237Z,75.80
2018-05-21T03:42:06.257Z,76.00
2018-05-21T03:43:05.554Z,76.40
2018-05-21T03:44:06.159Z,76.20
2018-05-21T03:45:05.812Z,76.40
2018-05-21T03:46:05.870Z,76.10
2018-05-21T03:47:08.126Z,76.00
2018-05-21T03:48:08.177Z,75.80
2018-05-21T03:49:05.738Z,75.70
2018-05-21T03:50:11.107Z,76.10
2018-05-21T03:51:08.413Z,76.20
2018-05-21T03:52:08.353Z,76.10
2018-05-21T03:53:05.809Z,76.10
2018-05-21T03:54:08.006Z,76.00
2018-05-21T03:55:10.688Z,76.10
2018-05-21T03:56:08.741Z,76.00
2018-05-21T03:57:06.420Z,76.00
2018-05-21T03:58:06.216Z,76.10
2018-05-21T03:59:10.618Z,75.70
2018-05-21T04:00:06.280Z,75.60
2018-05-21T04:01:08.401Z,74.60
2018-05-21T04:02:11.428Z,74.60
2018-05-21T04:03:06.588Z,74.40
2018-05-21T04:04:13.526Z,74.00
2018-05-21T04:05:08.295Z,73.70
2018-05-21T04:06:06.251Z,73.70
2018-05-21T04:07:10.640Z,73.50
2018-05-21T04:08:08.931Z,72.40
2018-05-21T04:09:06.400Z,72.50
2018-05-21T04:10:08.662Z,72.20
2018-05-21T04:11:08.651Z,71.90
2018-05-21T04:12:08.955Z,71.60
2018-05-21T04:13:05.571Z,71.40
2018-05-21T04:14:05.700Z,71.00
2018-05-21T04:15:06.724Z,70.60
2018-05-21T04:16:06.562Z,70.00
2018-05-21T04:17:06.252Z,69.40
2018-05-21T04:18:13.446Z,68.80
2018-05-21T04:19:08.406Z,68.20
2018-05-21T04:20:08.830Z,67.70
2018-05-21T04:21:06.384Z,67.60
2018-05-21T04:22:06.353Z,67.30
2018-05-21T04:23:08.408Z,66.40
2018-05-21T04:24:06.137Z,66.30
2018-05-21T04:25:09.241Z,65.10
2018-05-21T04:26:09.174Z,64.60
2018-05-21T04:27:05.784Z,64.60
2018-05-21T04:28:06.538Z,63.80
2018-05-21T04:29:11.390Z,63.30
2018-05-21T04:30:06.321Z,63.00
2018-05-21T04:31:11.593Z,62.60
2018-05-21T04:32:06.191Z,62.10
2018-05-21T04:33:09.015Z,61.40
2018-05-21T04:34:05.939Z,61.40
2018-05-21T04:35:06.545Z,60.30
2018-05-21T04:36:08.126Z,59.50
2018-05-21T04:37:06.114Z,59.40
2018-05-21T04:38:06.399Z,59.10
2018-05-21T04:39:06.479Z,58.80
2018-05-21T04:40:05.807Z,58.70
2018-05-21T04:41:06.792Z,58.50
2018-05-21T04:42:06.605Z,57.90
2018-05-21T04:43:06.182Z,57.60
2018-05-21T04:44:08.560Z,56.80
2018-05-21T04:45:06.075Z,56.60
2018-05-21T04:46:10.719Z,56.20
2018-05-21T04:47:11.303Z,56.30
2018-05-21T04:48:11.415Z,56.30
2018-05-21T04:49:11.156Z,55.40
2018-05-21T04:50:06.523Z,55.20
2018-05-21T04:51:06.413Z,55.30
2018-05-21T04:52:05.990Z,55.10
2018-05-21T04:53:06.250Z,53.70
2018-05-21T04:54:06.087Z,53.10
2018-05-21T04:55:05.740Z,53.50
2018-05-21T04:56:06.071Z,53.50
2018-05-21T04:57:06.186Z,53.00
2018-05-21T04:58:05.741Z,52.40
2018-05-21T04:59:06.312Z,51.80
2018-05-21T05:00:05.935Z,51.60
2018-05-21T05:01:08.717Z,51.60
2018-05-21T05:02:08.414Z,51.30
2018-05-21T05:03:09.424Z,51.20
2018-05-21T05:04:08.501Z,51.20
2018-05-21T05:05:06.044Z,51.20
2018-05-21T05:06:11.140Z,51.10
2018-05-21T05:07:05.564Z,51.10
2018-05-21T05:08:06.429Z,51.10
2018-05-21T05:09:06.143Z,50.90
2018-05-21T05:10:10.968Z,51.40
2018-05-21T05:11:05.895Z,51.30
2018-05-21T05:12:06.212Z,50.90
2018-05-21T05:13:06.173Z,50.60
2018-05-21T05:14:11.048Z,50.30
2018-05-21T05:15:06.716Z,50.30
2018-05-21T05:16:06.615Z,50.10
2018-05-21T05:17:06.392Z,49.80
2018-05-21T05:18:08.833Z,49.50
2018-05-21T05:19:09.167Z,49.60
2018-05-21T05:20:06.090Z,49.60
2018-05-21T05:21:06.525Z,49.50
2018-05-21T05:22:05.639Z,49.30
2018-05-21T05:23:06.056Z,48.70
2018-05-21T05:24:08.022Z,48.50
2018-05-21T05:25:05.601Z,48.50
2018-05-21T05:26:05.707Z,48.30
2018-05-21T05:27:06.409Z,48.00
2018-05-21T05:28:05.876Z,48.10
2018-05-21T05:29:10.577Z,47.20
2018-05-21T05:30:05.808Z,47.10
2018-05-21T05:31:14.018Z,47.70
2018-05-21T05:32:05.951Z,47.70
2018-05-21T05:33:05.546Z,47.40
2018-05-21T05:34:12.420Z,47.30
2018-05-21T05:35:06.492Z,47.20
2018-05-21T05:36:06.429Z,47.20
2018-05-21T05:37:08.720Z,47.20
2018-05-21T05:38:06.625Z,47.20
2018-05-21T05:39:06.185Z,46.80
2018-05-21T05:40:06.104Z,46.60
2018-05-21T05:41:05.819Z,46.60
2018-05-21T05:42:05.657Z,46.50
2018-05-21T05:43:06.102Z,46.40
2018-05-21T05:44:05.752Z,46.70
2018-05-21T05:45:06.433Z,47.00
2018-05-21T05:46:06.019Z,46.80
2018-05-21T05:47:08.220Z,46.30
2018-05-21T05:48:05.983Z,46.30
2018-05-21T05:49:08.236Z,45.70
2018-05-21T05:50:05.875Z,45.70
2018-05-21T05:51:05.562Z,45.80
2018-05-21T05:52:07.254Z,46.10
2018-05-21T05:53:05.787Z,45.90
2018-05-21T05:54:08.316Z,45.00
2018-05-21T05:55:06.124Z,45.10
2018-05-21T05:56:08.252Z,45.40
2018-05-21T05:57:10.917Z,45.40
2018-05-21T05:58:05.842Z,45.60
2018-05-21T05:59:06.721Z,45.00
2018-05-21T06:00:06.523Z,44.70
2018-05-21T06:01:10.737Z,44.20
2018-05-21T06:02:11.386Z,44.50
2018-05-21T06:03:06.598Z,44.50
2018-05-21T06:04:06.241Z,44.30
2018-05-21T06:05:06.482Z,44.00
2018-05-21T06:06:06.141Z,44.60
2018-05-21T06:07:06.197Z,44.70
2018-05-21T06:08:06.176Z,44.90
2018-05-21T06:09:10.779Z,44.60
2018-05-21T06:10:11.247Z,44.50
2018-05-21T06:11:10.959Z,43.90
2018-05-21T06:12:06.952Z,43.90
2018-05-21T06:13:08.322Z,43.60
2018-05-21T06:14:05.925Z,43.80
2018-05-21T06:15:07.172Z,43.40
2018-05-21T06:16:08.219Z,44.00
2018-05-21T06:17:05.792Z,43.90
2018-05-21T06:18:07.545Z,43.70
2018-05-21T06:19:11.479Z,43.10
2018-05-21T06:20:06.553Z,43.20
2018-05-21T06:21:11.108Z,43.20
2018-05-21T06:22:08.231Z,43.70
2018-05-21T06:23:05.776Z,43.70
2018-05-21T06:24:08.964Z,43.90
2018-05-21T06:25:11.132Z,43.90
2018-05-21T06:26:07.997Z,43.70
2018-05-21T06:27:10.652Z,43.50
2018-05-21T06:28:11.088Z,43.60
2018-05-21T06:29:05.801Z,43.70
2018-05-21T06:30:06.472Z,43.50
2018-05-21T06:31:08.190Z,43.20
2018-05-21T06:32:05.903Z,43.10
2018-05-21T06:33:06.505Z,43.40
2018-05-21T06:34:11.267Z,43.50
2018-05-21T06:35:06.072Z,43.20
2018-05-21T06:36:08.436Z,43.50
2018-05-21T06:37:06.459Z,43.60
2018-05-21T06:38:06.156Z,44.10
2018-05-21T06:39:11.918Z,43.40
2018-05-21T06:40:11.568Z,43.40
2018-05-21T06:41:11.283Z,43.40
2018-05-21T06:42:13.215Z,43.10
2018-05-21T06:43:10.832Z,43.00
2018-05-21T06:44:06.305Z,43.00
2018-05-21T06:45:06.515Z,42.80
2018-05-21T06:46:08.499Z,43.00
2018-05-21T06:47:06.013Z,43.00
2018-05-21T06:48:05.840Z,43.10
2018-05-21T06:49:08.926Z,43.20
2018-05-21T06:50:06.987Z,43.00
2018-05-21T06:51:10.721Z,43.00
2018-05-21T06:52:08.254Z,43.20
2018-05-21T06:53:05.929Z,43.20
2018-05-21T06:54:10.656Z,42.60
2018-05-21T06:55:08.527Z,42.50
2018-05-21T06:56:08.708Z,42.80
2018-05-21T06:57:16.329Z,42.80
2018-05-21T06:58:05.845Z,43.00
2018-05-21T06:59:10.594Z,42.90
2018-05-21T07:00:08.707Z,42.80
2018-05-21T07:01:06.321Z,42.70
2018-05-21T07:02:06.360Z,43.30
2018-05-21T07:03:06.160Z,43.20
2018-05-21T07:04:05.835Z,43.20
2018-05-21T07:05:10.586Z,42.80
2018-05-21T07:06:06.712Z,42.70
2018-05-21T07:07:06.454Z,42.40
2018-05-21T07:08:08.868Z,42.10
2018-05-21T07:09:11.696Z,42.10
2018-05-21T07:10:08.799Z,42.80
2018-05-21T07:11:08.908Z,42.90
2018-05-21T07:12:08.935Z,42.10
2018-05-21T07:13:06.404Z,42.10
2018-05-21T07:14:06.430Z,42.30
2018-05-21T07:15:06.068Z,42.30
2018-05-21T07:16:05.653Z,42.30
2018-05-21T07:17:08.960Z,42.20
2018-05-21T07:18:06.981Z,42.20
2018-05-21T07:19:08.328Z,41.60
2018-05-21T07:20:06.162Z,41.60
2018-05-21T07:21:13.452Z,41.70
2018-05-21T07:22:06.202Z,41.80
2018-05-21T07:23:06.302Z,41.50
2018-05-21T07:24:08.177Z,41.90
2018-05-21T07:25:06.180Z,41.90
2018-05-21T07:26:08.426Z,41.40
2018-05-21T07:27:08.597Z,41.60
2018-05-21T07:28:06.242Z,41.70
2018-05-21T07:29:06.221Z,41.30
2018-05-21T07:30:08.338Z,41.00
2018-05-21T07:31:13.628Z,41.40
2018-05-21T07:32:08.826Z,41.50
2018-05-21T07:33:06.624Z,41.60
2018-05-21T07:34:06.775Z,41.90
2018-05-21T07:35:06.497Z,42.20
2018-05-21T07:36:06.459Z,42.00
2018-05-21T07:37:06.355Z,42.30
2018-05-21T07:38:05.933Z,42.40
2018-05-21T07:39:06.037Z,41.70
2018-05-21T07:40:08.271Z,42.00
2018-05-21T07:41:08.579Z,41.60
2018-05-21T07:42:06.442Z,41.60
2018-05-21T07:43:08.689Z,41.00
2018-05-21T07:44:06.712Z,40.90
2018-05-21T07:45:06.576Z,41.00
2018-05-21T07:46:06.488Z,41.20
2018-05-21T07:47:06.309Z,41.20
2018-05-21T07:48:06.250Z,41.20
2018-05-21T07:49:11.002Z,41.60
2018-05-21T07:50:06.438Z,41.60
2018-05-21T07:51:06.648Z,41.20
2018-05-21T07:52:06.358Z,41.40
2018-05-21T07:53:06.004Z,41.50
2018-05-21T07:54:05.752Z,41.40
2018-05-21T07:55:09.164Z,40.70
2018-05-21T07:56:05.839Z,40.70
2018-05-21T07:57:11.521Z,40.50
2018-05-21T07:58:08.707Z,40.30
2018-05-21T07:59:08.281Z,39.60
2018-05-21T08:00:08.396Z,39.50
2018-05-21T08:01:08.507Z,39.60
2018-05-21T08:02:06.084Z,39.60
2018-05-21T08:03:11.342Z,39.50
2018-05-21T08:04:10.990Z,39.20
2018-05-21T08:05:06.899Z,39.10
2018-05-21T08:06:05.566Z,39.10
2018-05-21T08:07:08.804Z,39.50
2018-05-21T08:08:08.932Z,39.40
2018-05-21T08:09:06.431Z,39.40
2018-05-21T08:10:11.145Z,39.50
2018-05-21T08:11:05.629Z,39.20
2018-05-21T08:12:06.260Z,38.90
2018-05-21T08:13:09.741Z,38.30
2018-05-21T08:14:10.700Z,38.30
2018-05-21T08:15:06.579Z,38.30
2018-05-21T08:16:08.854Z,37.60
2018-05-21T08:17:08.484Z,37.00
2018-05-21T08:18:11.163Z,36.70
2018-05-21T08:19:10.769Z,36.90
2018-05-21T08:20:06.195Z,36.90
2018-05-21T08:21:08.271Z,37.50
2018-05-21T08:22:05.912Z,37.50
2018-05-21T08:23:10.706Z,37.60
2018-05-21T08:24:06.656Z,37.60
2018-05-21T08:25:06.417Z,37.70
2018-05-21T08:26:06.086Z,38.00
2018-05-21T08:27:08.221Z,38.00
2018-05-21T08:28:06.578Z,38.00
2018-05-21T08:29:06.463Z,37.20
2018-05-21T08:30:14.045Z,38.00
2018-05-21T08:31:05.826Z,38.00
2018-05-21T08:32:15.774Z,37.50
2018-05-21T08:33:06.859Z,36.70
2018-05-21T08:34:05.660Z,36.80
2018-05-21T08:35:06.272Z,36.90
2018-05-21T08:36:08.591Z,36.80
2018-05-21T08:37:06.655Z,36.80
2018-05-21T08:38:06.282Z,36.00
2018-05-21T08:39:11.076Z,36.00
2018-05-21T08:40:08.368Z,36.20
2018-05-21T08:41:05.953Z,36.20
2018-05-21T08:42:05.781Z,35.60
2018-05-21T08:43:10.780Z,34.90
2018-05-21T08:44:11.166Z,34.90
2018-05-21T08:45:05.968Z,34.80
2018-05-21T08:46:08.504Z,34.80
2018-05-21T08:47:06.483Z,34.80
2018-05-21T08:48:06.606Z,34.90
2018-05-21T08:49:06.387Z,34.40
2018-05-21T08:50:11.258Z,34.50
2018-05-21T08:51:05.822Z,34.50
2018-05-21T08:52:06.475Z,34.40
2018-05-21T08:53:08.716Z,34.80
2018-05-21T08:54:06.268Z,34.70
2018-05-21T08:55:06.478Z,34.20
2018-05-21T08:56:06.183Z,34.60
2018-05-21T08:57:05.628Z,34.40
2018-05-21T08:58:06.361Z,34.20
2018-05-21T08:59:05.763Z,33.80
2018-05-21T09:00:05.804Z,34.00
2018-05-21T09:01:06.787Z,34.20
2018-05-21T09:02:05.892Z,34.60
2018-05-21T09:03:06.261Z,34.60
2018-05-21T09:04:08.670Z,34.10
2018-05-21T09:05:06.409Z,34.10
2018-05-21T09:06:06.402Z,34.00
2018-05-21T09:07:08.894Z,33.80
2018-05-21T09:08:06.691Z,33.90
2018-05-21T09:09:06.378Z,34.30
2018-05-21T09:10:06.602Z,34.20
2018-05-21T09:11:06.461Z,34.10
2018-05-21T09:12:09.052Z,33.90
2018-05-21T09:13:11.089Z,33.90
2018-05-21T09:14:11.625Z,33.70
2018-05-21T09:15:08.229Z,33.70
2018-05-21T09:16:08.308Z,33.80
2018-05-21T09:17:05.805Z,33.80
2018-05-21T09:18:05.836Z,33.50
2018-05-21T09:19:05.659Z,33.70
2018-05-21T09:20:11.548Z,33.70
2018-05-21T09:21:06.520Z,33.70
2018-05-21T09:22:11.349Z,34.10
2018-05-21T09:23:06.065Z,34.10
2018-05-21T09:24:08.989Z,34.00
2018-05-21T09:25:06.191Z,34.10
2018-05-21T09:26:06.504Z,33.70
2018-05-21T09:27:06.143Z,33.60
2018-05-21T09:28:05.846Z,33.40
2018-05-21T09:29:05.787Z,33.40
2018-05-21T09:30:06.739Z,33.00
2018-05-21T09:31:10.056Z,33.20
2018-05-21T09:32:05.865Z,33.20
2018-05-21T09:33:05.501Z,33.40
2018-05-21T09:34:06.504Z,33.80
2018-05-21T09:35:08.805Z,33.60
2018-05-21T09:36:06.335Z,33.60
2018-05-21T09:37:06.028Z,33.70
2018-05-21T09:38:06.129Z,33.60
2018-05-21T09:39:06.051Z,34.20
2018-05-21T09:40:05.812Z,34.40
2018-05-21T09:41:06.153Z,34.40
2018-05-21T09:42:06.119Z,34.60
2018-05-21T09:43:08.139Z,34.10
2018-05-21T09:44:05.628Z,34.10
2018-05-21T09:45:08.927Z,34.20
2018-05-21T09:46:10.995Z,34.30
2018-05-21T09:47:08.021Z,33.40
2018-05-21T09:48:08.702Z,33.60
2018-05-21T09:49:06.442Z,33.50
2018-05-21T09:50:11.032Z,33.50
2018-05-21T09:51:05.661Z,33.90
2018-05-21T09:52:08.850Z,34.00
2018-05-21T09:53:11.468Z,34.00
2018-05-21T09:54:08.796Z,32.20
2018-05-21T09:55:05.736Z,32.10
2018-05-21T09:56:11.341Z,31.50
2018-05-21T09:57:06.993Z,31.50
2018-05-21T09:58:06.087Z,31.70
2018-05-21T09:59:05.786Z,32.30
2018-05-21T10:00:06.974Z,32.80
2018-05-21T10:01:06.757Z,33.20
2018-05-21T10:02:08.883Z,32.40
2018-05-21T10:03:06.789Z,32.40
2018-05-21T10:04:06.757Z,31.90
2018-05-21T10:05:06.699Z,32.40
2018-05-21T10:06:11.364Z,33.00
2018-05-21T10:07:10.889Z,32.80
2018-05-21T10:08:06.800Z,33.30
2018-05-21T10:09:09.116Z,32.60
2018-05-21T10:10:09.241Z,30.70
2018-05-21T10:11:05.717Z,30.60
2018-05-21T10:12:06.848Z,29.70
2018-05-21T10:13:05.602Z,29.30
2018-05-21T10:14:06.486Z,29.60
2018-05-21T10:15:06.322Z,29.30
2018-05-21T10:16:11.071Z,28.60
2018-05-21T10:17:05.570Z,28.60
2018-05-21T10:18:06.363Z,28.70
2018-05-21T10:19:08.472Z,27.60
2018-05-21T10:20:06.127Z,27.50
2018-05-21T10:21:08.362Z,27.20
2018-05-21T10:22:05.781Z,27.10
2018-05-21T10:23:06.536Z,26.60
2018-05-21T10:24:09.062Z,26.80
2018-05-21T10:25:07.119Z,26.80
2018-05-21T10:26:06.371Z,27.30
2018-05-21T10:27:11.082Z,26.10
2018-05-21T10:28:06.529Z,26.50
2018-05-21T10:29:08.142Z,26.10
2018-05-21T10:30:05.752Z,26.10
2018-05-21T10:31:11.508Z,25.90
2018-05-21T10:32:06.101Z,25.90
2018-05-21T10:33:06.104Z,26.60
2018-05-21T10:34:08.260Z,26.20
2018-05-21T10:35:05.756Z,26.20
2018-05-21T10:36:06.640Z,26.50
2018-05-21T10:37:09.077Z,26.70
2018-05-21T10:38:06.040Z,26.60
2018-05-21T10:39:08.265Z,25.90
2018-05-21T10:40:05.967Z,25.80
2018-05-21T10:41:05.595Z,25.50
2018-05-21T10:42:06.588Z,25.60
2018-05-21T10:43:06.630Z,25.90
2018-05-21T10:44:06.199Z,26.00
2018-05-21T10:45:06.649Z,26.40
2018-05-21T10:46:06.489Z,26.50
2018-05-21T10:47:06.167Z,26.50
2018-05-21T10:48:08.404Z,25.60
2018-05-21T10:49:11.127Z,25.60
2018-05-21T10:50:05.902Z,26.00
2018-05-21T10:51:06.193Z,25.30
2018-05-21T10:52:05.823Z,25.20
2018-05-21T10:53:06.615Z,25.50
2018-05-21T10:54:08.924Z,26.10
2018-05-21T10:55:08.929Z,26.20
2018-05-21T10:56:06.397Z,26.30
2018-05-21T10:57:06.735Z,25.20
2018-05-21T10:58:11.058Z,25.10
2018-05-21T10:59:05.635Z,25.30
2018-05-21T11:00:06.315Z,25.00
2018-05-21T11:01:11.430Z,25.50
2018-05-21T11:02:06.075Z,25.40
2018-05-21T11:03:08.249Z,24.60
2018-05-21T11:04:05.817Z,24.70
2018-05-21T11:05:10.789Z,25.30
2018-05-21T11:06:11.315Z,25.30
2018-05-21T11:07:11.291Z,25.70
2018-05-21T11:08:05.577Z,25.70
2018-05-21T11:09:08.734Z,25.00
2018-05-21T11:10:08.802Z,25.60
2018-05-21T11:11:05.738Z,25.60
2018-05-21T11:12:08.477Z,25.40
2018-05-21T11:13:06.275Z,25.30
2018-05-21T11:14:06.034Z,24.90
2018-05-21T11:15:05.477Z,24.80
2018-05-21T11:16:08.636Z,25.40
2018-05-21T11:17:06.563Z,25.40
2018-05-21T11:18:08.126Z,25.70
2018-05-21T11:19:08.759Z,25.90
2018-05-21T11:20:06.357Z,25.90
2018-05-21T11:21:06.254Z,26.30
2018-05-21T11:22:06.167Z,25.60
2018-05-21T11:23:10.955Z,25.20
2018-05-21T11:24:08.097Z,25.20
2018-05-21T11:25:05.621Z,25.10
2018-05-21T11:26:07.723Z,24.90
2018-05-21T11:27:06.783Z,25.00
2018-05-21T11:28:06.900Z,24.70
2018-05-21T11:29:05.927Z,24.90
2018-05-21T11:30:10.801Z,24.80
2018-05-21T11:31:06.174Z,24.70
2018-05-21T11:32:10.767Z,24.90
2018-05-21T11:33:08.037Z,24.50
2018-05-21T11:34:05.640Z,24.40
2018-05-21T11:35:06.295Z,24.40
2018-05-21T11:36:06.192Z,24.60
2018-05-21T11:37:08.677Z,24.60
2018-05-21T11:38:06.540Z,24.60
2018-05-21T11:39:06.690Z,24.10
2018-05-21T11:40:11.308Z,25.00
2018-05-21T11:41:08.539Z,25.50
2018-05-21T11:42:08.516Z,24.20
2018-05-21T11:43:08.547Z,24.00
2018-05-21T11:44:06.085Z,23.90
2018-05-21T11:45:05.736Z,23.70
2018-05-21T11:46:06.378Z,24.10
2018-05-21T11:47:06.478Z,24.20
2018-05-21T11:48:08.603Z,24.00
2018-05-21T11:49:06.086Z,24.00
2018-05-21T11:50:09.260Z,23.30
2018-05-21T11:51:06.261Z,23.20
2018-05-21T11:52:05.924Z,23.00
2018-05-21T11:53:06.284Z,23.40
2018-05-21T11:54:06.253Z,23.40
2018-05-21T11:55:06.125Z,23.30
2018-05-21T11:56:05.830Z,23.00
2018-05-21T11:57:08.315Z,23.30
2018-05-21T11:58:05.828Z,23.30
2018-05-21T11:59:09.402Z,22.70
2018-05-21T12:00:08.253Z,23.00
2018-05-21T12:01:06.038Z,23.00
2018-05-21T12:02:05.967Z,23.30
2018-05-21T12:03:08.195Z,23.90
2018-05-21T12:04:08.627Z,23.70
2018-05-21T12:05:06.207Z,23.70
2018-05-21T12:06:10.828Z,23.90
2018-05-21T12:07:08.844Z,23.20
2018-05-21T12:08:06.285Z,23.20
2018-05-21T12:09:06.159Z,23.40
2018-05-21T12:10:10.846Z,23.10
2018-05-21T12:11:13.973Z,23.40
2018-05-21T12:12:06.078Z,23.40
2018-05-21T12:13:09.398Z,23.70
2018-05-21T12:14:06.131Z,23.70
2018-05-21T12:15:08.282Z,23.90
2018-05-21T12:16:10.858Z,23.90
2018-05-21T12:17:06.062Z,23.90
2018-05-21T12:18:10.785Z,23.30
2018-05-21T12:19:10.870Z,23.40
2018-05-21T12:20:08.704Z,23.40
2018-05-21T12:21:06.186Z,23.40
2018-05-21T12:22:05.781Z,23.10
2018-05-21T12:23:06.478Z,23.30
2018-05-21T12:24:06.220Z,23.70
2018-05-21T12:25:08.720Z,23.40
2018-05-21T12:26:08.730Z,23.30
2018-05-21T12:27:06.251Z,23.30
2018-05-21T12:28:11.192Z,23.00
2018-05-21T12:29:08.919Z,22.90
2018-05-21T12:30:05.527Z,23.00
2018-05-21T12:31:06.243Z,23.10
2018-05-21T12:32:08.509Z,23.00
2018-05-21T12:33:08.757Z,22.80
2018-05-21T12:34:08.329Z,22.80
2018-05-21T12:35:06.075Z,23.20
2018-05-21T12:36:05.768Z,23.30
2018-05-21T12:37:05.987Z,22.70
2018-05-21T12:38:05.728Z,23.00
2018-05-21T12:39:11.337Z,22.70
2018-05-21T12:40:06.242Z,22.30
2018-05-21T12:41:08.473Z,22.50
2018-05-21T12:42:05.808Z,22.50
2018-05-21T12:43:10.741Z,22.70
2018-05-21T12:44:11.391Z,22.60
2018-05-21T12:45:11.005Z,22.60
2018-05-21T12:46:08.864Z,22.70
2018-05-21T12:47:08.173Z,23.00
2018-05-21T12:48:06.096Z,23.00
2018-05-21T12:49:08.231Z,23.40
2018-05-21T12:50:05.715Z,23.40
2018-05-21T12:51:06.315Z,23.30
2018-05-21T12:52:06.090Z,22.60